WetterOnline ( https://www.wetteronline.de )

Wetter aktuell Keltern

Aktuelles Wetter: Mühlacker (245m)

6-stündlich | Neueste Meldungen
Ortszeit Temperatur Wetter
Mo, 27.09. 20:00 16.9° C wolkig
Mo, 27.09. 14:00 22.6° C bewölkt
Mo, 27.09. 8:00 11.3° C Nebel
Mo, 27.09. 2:00 13.4° C bewölkt
So, 26.09. 20:00 17.1° C bewölkt
So, 26.09. 14:00 23.4° C wolkig
So, 26.09. 8:00 10.6° C fast wolkenlos
So, 26.09. 2:00 15.0° C bewölkt
Ortszeit Temperatur Wetter
Di, 28.09. 1:30 15.0° C Sprühregen
Di, 28.09. 1:20 15.0° C Sprühregen
Di, 28.09. 1:10 15.6° C Sprühregen
Di, 28.09. 1:00 16.6° C bedeckt
Di, 28.09. 0:50 16.6° C bedeckt
Di, 28.09. 0:40 17.1° C bewölkt
Di, 28.09. 0:30 17.5° C wolkig
Di, 28.09. 0:00 15.0° C bedeckt
Mo, 27.09. 23:30 14.7° C bedeckt
Mo, 27.09. 23:00 14.8° C bedeckt
Mo, 27.09. 22:30 14.9° C bedeckt
Ortszeit Relative Feuchte Sichtweite
Mo, 27.09. 20:00 86% 45 km
Mo, 27.09. 14:00 54% 60 km
Mo, 27.09. 8:00 100% <100 m
Mo, 27.09. 2:00 97% 13 km
So, 26.09. 20:00 92% 24 km
So, 26.09. 14:00 62% 55 km
So, 26.09. 8:00 97% 13 km
So, 26.09. 2:00 93% 30 km
Ortszeit Relative Feuchte Sichtweite
Di, 28.09. 1:30 81% 28 km
Di, 28.09. 1:20 81% -
Di, 28.09. 1:10 75% -
Di, 28.09. 1:00 77% >70 km
Di, 28.09. 0:50 77% -
Di, 28.09. 0:40 79% -
Di, 28.09. 0:30 78% 55 km
Di, 28.09. 0:00 92% 35 km
Mo, 27.09. 23:30 93% 40 km
Mo, 27.09. 23:00 93% 40 km
Mo, 27.09. 22:30 93% 40 km
Ortszeit Niederschlagsmenge Niederschlagsart
Mo, 27.09. 20:00 0.1 l/m2 in 12 Std. Regen
Mo, 27.09. 14:00 0.0 l/m2 in 6 Std. -
Mo, 27.09. 8:00 0.1 l/m2 in 12 Std. -
Mo, 27.09. 2:00 0.1 l/m2 in 6 Std. Regen
So, 26.09. 20:00 0.1 l/m2 in 12 Std. Regen
So, 26.09. 14:00 0.1 l/m2 in 6 Std. Regen
So, 26.09. 8:00 0.1 l/m2 in 12 Std. -
So, 26.09. 2:00 0.1 l/m2 in 6 Std. Regen
Ortszeit Niederschlagsmenge Niederschlagsart
Di, 28.09. 1:30 0.1 l/m2 in 1 Std. -
Di, 28.09. 1:20 keine Meldung -
Di, 28.09. 1:10 keine Meldung -
Di, 28.09. 1:00 0.1 l/m2 in 1 Std. Regen
Di, 28.09. 0:50 keine Meldung -
Di, 28.09. 0:40 keine Meldung -
Di, 28.09. 0:30 0.1 l/m2 in 1 Std. Schneeregen
Di, 28.09. 0:00 0.1 l/m2 in 1 Std. Regen
Mo, 27.09. 23:30 0.1 l/m2 in 1 Std. Schneeregen
Mo, 27.09. 23:00 0.0 l/m2 in 1 Std. -
Mo, 27.09. 22:30 0.0 l/m2 in 1 Std. -
Ortszeit Stärke Spitze Richtung
km/h Bft. km/h Grad Sektor
Mo, 27.09. 20:00 2 1 20 80° O
Mo, 27.09. 14:00 4 1 11 280° W
Mo, 27.09. 8:00 0 0 11 - -
Mo, 27.09. 2:00 0 0 4 - -
So, 26.09. 20:00 4 1 36 220° SW
So, 26.09. 14:00 7 2 14 130° SO
So, 26.09. 8:00 2 1 7 290° W
So, 26.09. 2:00 2 1 9 330° NW
Ortszeit Stärke Spitze Richtung
km/h Bft. km/h Grad Sektor
Di, 28.09. 1:30 20 4 37 290° W
Di, 28.09. 1:20 20 4 - 290° W
Di, 28.09. 1:10 20 4 - 270° W
Di, 28.09. 1:00 22 4 36 270° W
Di, 28.09. 0:50 22 4 - 270° W
Di, 28.09. 0:40 20 4 - 270° W
Di, 28.09. 0:30 17 3 31 260° W
Di, 28.09. 0:00 0 0 4 - -
Mo, 27.09. 23:30 0 0 4 - -
Mo, 27.09. 23:00 0 0 4 - -
Mo, 27.09. 22:30 0 0 4 - -
Ortszeit Untergrenze Bedeckung Gattung
total tief tief mittel hoch
Mo, 27.09. 20:00 1500 m 7/8 2/8 - - -
Mo, 27.09. 14:00 - 7/8 - - - -
Mo, 27.09. 8:00 <30 m 8/8 0/8 - - -
Mo, 27.09. 2:00 2400 m 8/8 5/8 - - -
So, 26.09. 20:00 2100 m 8/8 7/8 - - -
So, 26.09. 14:00 1110 m 8/8 1/8 - - -
So, 26.09. 8:00 7500 m 1/8 0/8 - - -
So, 26.09. 2:00 1800 m 8/8 6/8 - - -
Ortszeit Bedeckungsgrad in Achtel und Wolkenuntergrenze
Di, 28.09. 1:30 7(510m) 8(720m)
Di, 28.09. 1:20 7(510m) 8(720m)
Di, 28.09. 1:10 7(510m) 8(720m)
Di, 28.09. 1:00 7(480m) 8(690m)
Di, 28.09. 0:50 7(480m) 8(690m)
Di, 28.09. 0:40 5(480m) 8(3000m) 8(3900m)
Di, 28.09. 0:30 2(690m) 8(3000m) 8(3900m)
Di, 28.09. 0:00 4(1320m) 8(2100m) 8(2400m)
Mo, 27.09. 23:30 7(2100m) 8(2700m) 8(3900m)
Mo, 27.09. 23:00 8(2700m) 8(3600m) 8(3300m)
Mo, 27.09. 22:30 8(3000m)
Ortszeit Luftdruck NN (hPa) Tendenz (hPa in 3 Std.)
Mo, 27.09. 20:00 1019 + 0,8
Mo, 27.09. 14:00 1017 - 0,7
Mo, 27.09. 8:00 1019 0,0
Mo, 27.09. 2:00 1019 - 0,3
So, 26.09. 20:00 1019 + 1,2
So, 26.09. 14:00 1017 - 0,6
So, 26.09. 8:00 1017 - 0,2
So, 26.09. 2:00 1017 + 0,5
Ortszeit Luftdruck NN (hPa) Tendenz (hPa in 3 Std.)
Di, 28.09. 1:30 1023 + 2,9
Di, 28.09. 1:20 1023 keine Meldung
Di, 28.09. 1:10 1023 keine Meldung
Di, 28.09. 1:00 1022 + 2,5
Di, 28.09. 0:50 1022 keine Meldung
Di, 28.09. 0:40 1022 keine Meldung
Di, 28.09. 0:30 1021 + 1,8
Di, 28.09. 0:00 1021 + 1,2
Mo, 27.09. 23:30 1020 + 1,0
Mo, 27.09. 23:00 1020 + 1,1
Mo, 27.09. 22:30 1020 + 1,0
Ortszeit Schneehöhe (cm)
Mo, 27.09. 20:00 -
Mo, 27.09. 14:00 -
Mo, 27.09. 8:00 -
Mo, 27.09. 2:00 -
So, 26.09. 20:00 -
So, 26.09. 14:00 -
So, 26.09. 8:00 -
So, 26.09. 2:00 -
Ortszeit Schneehöhe (cm)
Di, 28.09. 1:30 -
Di, 28.09. 1:20 -
Di, 28.09. 1:10 -
Di, 28.09. 1:00 -
Di, 28.09. 0:50 -
Di, 28.09. 0:40 -
Di, 28.09. 0:30 -
Di, 28.09. 0:00 -
Mo, 27.09. 23:30 -
Mo, 27.09. 23:00 -
Mo, 27.09. 22:30 -
Link zu dieser Seite / Seite empfehlen

Das Wetter in ...